Huvudsida
METAR-TAF:

METAR-TAF

Flygplatser :

Stockholm-Västerås flygplats

Västerås, Sverige

latitud: 59-35N, longitud: 016-38E, höjd: 6 m

Aktuellt väderrapport

Denna rapport gjordes för 23 minuter sedan, klockan 16:20 UTC
Vind 1 kt varierande vindriktning
Temperatur 20°C
Fuktighet 46%
Tryck 1013 hPa
Sikt 10 km eller mer

METAR: ESOW 071620Z AUTO VRB01KT 9999 NCD 20/08 Q1013

Tid: 18:43 (16:43 UTC)

Väderprognos

Denna rapport gjordes för 5 timmar och 13 minuter sedan, klockan 11:30 UTC
Prognos gäller från 07 kl. 12 UTC till 07 kl. 15 UTC
Vind 3 kt varierande vindriktning
Sikt 10 km eller mer
Brutna moln på en höjd av 4000 ft
Temporärt
från 07 kl. 12 UTC till 07 kl. 14 UTC
Brutna moln på en höjd av 500 ft
regn

TAF: ESOW 071130Z 0712/0715 VRB03KT 9999 BKN040 TEMPO 0712/0714 RA BKN005

Aktuella väderrapporter och prognoser från 4000 flygplatser (METAR- och TAF-rapporter).

De tillgängliga stationerna syns som gula och röda prickar på kartan.

För musen över prickarna för att se namnen på stationerna.

Klicka sedan för att få väderrapporter och prognoser.

För att ändra kartan: Klicka på de gröna knapparna med ett svart kors på för att zooma in; den gröna knappen med ett streck på för att zooma ut; eller på de gröna pilarna för angränsande kartor.


METAR-TAF: